createdAt,value
2018-12-15T03:25:25.007Z,28.93
2018-12-15T03:27:55.613Z,30.40
2018-12-15T03:30:23.597Z,31.73
2018-12-15T03:32:51.612Z,28.07
2018-12-15T03:35:19.607Z,29.17
2018-12-15T03:37:47.665Z,30.23
2018-12-15T03:40:15.665Z,28.97
2018-12-15T03:42:43.672Z,28.57
2018-12-15T03:45:11.700Z,31.90
2018-12-15T03:47:39.712Z,31.67
2018-12-15T03:50:07.875Z,29.87
2018-12-15T03:52:35.919Z,29.83
2018-12-15T03:55:04.034Z,33.10
2018-12-15T03:57:32.089Z,28.67
2018-12-15T04:00:00.077Z,30.63
2018-12-15T04:02:28.133Z,29.83
2018-12-15T04:04:56.133Z,31.47
2018-12-15T04:07:24.160Z,28.10
2018-12-15T04:09:52.192Z,32.43
2018-12-15T04:12:20.241Z,32.67
2018-12-15T04:14:48.392Z,29.60
2018-12-15T04:17:16.429Z,28.77
2018-12-15T04:19:44.765Z,33.90
2018-12-15T04:22:17.517Z,29.47
2018-12-15T04:24:46.401Z,30.27
2018-12-15T04:27:14.403Z,29.57
2018-12-15T04:29:42.606Z,28.60
2018-12-15T04:32:10.613Z,29.17
2018-12-15T04:34:38.673Z,29.60
2018-12-15T04:37:06.693Z,29.23
2018-12-15T04:39:34.693Z,29.70
2018-12-15T04:42:02.697Z,29.93
2018-12-15T04:44:30.693Z,28.83
2018-12-15T04:46:58.900Z,27.53
2018-12-15T04:49:26.901Z,29.37
2018-12-15T04:51:54.900Z,28.47
2018-12-15T04:54:22.897Z,29.80
2018-12-15T04:56:50.973Z,29.90
2018-12-15T04:59:19.012Z,28.07
2018-12-15T05:01:47.117Z,27.70
2018-12-15T05:04:15.118Z,30.60
2018-12-15T05:06:43.233Z,27.80
2018-12-15T05:09:11.245Z,29.90
2018-12-15T05:11:39.293Z,26.93
2018-12-15T05:14:07.289Z,27.43
2018-12-15T05:16:35.298Z,26.50
2018-12-15T05:19:03.349Z,27.57
2018-12-15T05:21:31.349Z,25.93
2018-12-15T05:26:25.609Z,27.70
2018-12-15T05:28:53.618Z,28.67
2018-12-15T05:31:21.631Z,25.33
2018-12-15T05:33:50.190Z,28.03
2018-12-15T05:36:18.307Z,26.17
2018-12-15T05:38:46.442Z,28.10
2018-12-15T05:41:15.626Z,28.03
2018-12-15T05:43:43.734Z,24.63
2018-12-15T05:46:11.770Z,26.27
2018-12-15T05:48:39.794Z,29.93
2018-12-15T05:51:08.322Z,29.47
2018-12-15T05:53:36.366Z,26.67
2018-12-15T05:58:39.599Z,30.60
2018-12-15T06:01:07.666Z,30.87
2018-12-15T06:03:35.731Z,32.03
2018-12-15T06:06:03.835Z,29.70
2018-12-15T06:08:31.925Z,40.10
2018-12-15T06:11:00.207Z,26.60
2018-12-15T06:13:28.338Z,27.30
2018-12-15T06:15:56.439Z,32.20
2018-12-15T06:18:24.475Z,27.20
2018-12-15T06:20:52.501Z,26.77
2018-12-15T06:23:20.527Z,34.17
2018-12-15T06:25:53.948Z,29.80
2018-12-15T06:28:21.996Z,31.10
2018-12-15T06:30:50.018Z,29.97
2018-12-15T06:33:23.351Z,27.23
2018-12-15T06:35:51.383Z,33.30
2018-12-15T06:38:19.415Z,28.90
2018-12-15T06:40:47.487Z,36.80
2018-12-15T06:43:15.896Z,29.53
2018-12-15T06:45:47.969Z,28.93
2018-12-15T06:48:16.093Z,29.70
2018-12-15T06:50:44.172Z,28.97
2018-12-15T06:53:12.280Z,33.07
2018-12-15T06:55:40.301Z,30.57
2018-12-15T06:58:08.429Z,30.80
2018-12-15T07:00:36.631Z,37.37
2018-12-15T07:03:04.650Z,29.10
2018-12-15T07:05:32.772Z,28.83
2018-12-15T07:08:00.844Z,30.63
2018-12-15T07:10:28.868Z,26.53
2018-12-15T07:12:56.895Z,27.93
2018-12-15T07:15:24.933Z,27.00
2018-12-15T07:17:52.985Z,31.57
2018-12-15T07:20:21.005Z,26.83
2018-12-15T07:22:49.064Z,31.80
2018-12-15T07:25:17.088Z,26.47
2018-12-15T07:27:45.133Z,24.17
2018-12-15T07:30:13.192Z,23.70
2018-12-15T07:32:41.196Z,27.93
2018-12-15T07:35:09.216Z,29.00
2018-12-15T07:37:37.257Z,29.40
2018-12-15T07:40:17.605Z,28.83
2018-12-15T07:45:32.090Z,31.83
2018-12-15T07:48:00.118Z,28.77
2018-12-15T07:50:28.194Z,26.83
2018-12-15T07:52:56.385Z,38.00
2018-12-15T07:55:24.425Z,32.00
2018-12-15T07:57:52.569Z,32.97
2018-12-15T08:00:20.604Z,30.27
2018-12-15T08:02:48.641Z,31.53
2018-12-15T08:05:16.653Z,30.07
2018-12-15T08:07:44.689Z,27.73
2018-12-15T08:10:14.837Z,34.67
2018-12-15T08:12:42.929Z,26.97
2018-12-15T08:15:10.947Z,30.73
2018-12-15T08:17:38.962Z,30.13
2018-12-15T08:20:09.781Z,34.17
2018-12-15T08:22:37.854Z,54.20
2018-12-15T08:25:26.957Z,32.73
2018-12-15T08:27:55.062Z,40.37
2018-12-15T08:30:23.222Z,33.77
2018-12-15T08:32:51.442Z,34.67
2018-12-15T08:35:19.505Z,32.73
2018-12-15T09:10:30.701Z,33.83
2018-12-15T09:12:59.873Z,27.90
2018-12-15T09:15:27.905Z,37.30
2018-12-15T09:17:55.954Z,34.90
2018-12-15T09:20:24.161Z,31.80
2018-12-15T09:22:52.173Z,26.87
2018-12-15T09:32:05.558Z,32.77
2018-12-15T09:34:33.678Z,29.33
2018-12-15T09:37:01.813Z,30.83
2018-12-15T09:39:29.866Z,31.37
2018-12-15T09:41:57.861Z,30.47
2018-12-15T09:44:25.989Z,28.17
2018-12-15T09:58:23.000Z,31.27
2018-12-15T10:00:54.805Z,30.33
2018-12-15T10:03:22.929Z,30.17
2018-12-15T10:05:51.019Z,29.73
2018-12-15T10:08:19.088Z,30.47
2018-12-15T10:10:47.110Z,39.53
2018-12-15T10:13:15.154Z,32.30
2018-12-15T10:15:49.890Z,38.07
2018-12-15T10:18:18.013Z,32.93
2018-12-15T10:20:46.070Z,33.43
2018-12-15T10:23:14.182Z,29.70
2018-12-15T10:25:42.255Z,26.80
2018-12-15T10:28:10.410Z,30.77
2018-12-15T10:30:43.850Z,28.57
2018-12-15T10:33:11.890Z,28.30
2018-12-15T10:35:40.265Z,26.23
2018-12-15T10:38:08.358Z,27.03
2018-12-15T10:40:36.458Z,35.77
2018-12-15T10:43:10.418Z,32.23
2018-12-15T10:45:38.558Z,27.37
2018-12-15T10:48:06.666Z,27.17
2018-12-15T10:50:34.718Z,24.17
2018-12-15T10:53:02.766Z,26.70
2018-12-15T10:55:30.944Z,23.27
2018-12-15T10:57:59.106Z,21.13
2018-12-15T11:00:32.478Z,23.07
2018-12-15T11:03:00.743Z,20.33
2018-12-15T11:05:29.011Z,22.10
2018-12-15T11:07:57.194Z,22.80
2018-12-15T11:10:25.311Z,21.53
2018-12-15T11:12:53.362Z,24.67
2018-12-15T11:15:25.015Z,21.93
2018-12-15T11:17:53.131Z,19.87
2018-12-15T11:20:21.379Z,19.30
2018-12-15T11:22:49.415Z,21.93
2018-12-15T11:25:17.499Z,22.00
2018-12-15T11:27:45.723Z,23.20
2018-12-15T11:30:13.783Z,19.77
2018-12-15T11:32:42.267Z,20.63
2018-12-15T11:35:10.536Z,21.67
2018-12-15T11:37:38.732Z,19.57
2018-12-15T11:40:06.887Z,23.33
2018-12-15T11:42:34.988Z,21.03
2018-12-15T11:45:03.222Z,18.07
2018-12-15T11:47:34.132Z,20.53
2018-12-15T11:50:02.513Z,21.57
2018-12-15T11:52:30.916Z,21.30
2018-12-15T11:54:58.988Z,20.37
2018-12-15T11:57:27.100Z,18.40
2018-12-15T11:59:55.581Z,19.23
2018-12-15T12:02:23.620Z,19.57
2018-12-15T12:04:51.625Z,17.83
2018-12-15T12:07:30.032Z,19.47
2018-12-15T12:09:58.189Z,18.90
2018-12-15T12:12:26.204Z,18.13
2018-12-15T12:14:54.252Z,18.20
2018-12-15T12:17:22.485Z,20.00
2018-12-15T12:20:12.232Z,19.97
2018-12-15T12:22:40.304Z,25.20
2018-12-15T12:25:08.426Z,20.33
2018-12-15T12:27:36.436Z,23.73
2018-12-15T12:30:04.913Z,21.70
2018-12-15T12:32:32.979Z,20.17
2018-12-15T12:35:00.990Z,23.00
2018-12-15T12:37:36.734Z,20.87
2018-12-15T12:40:05.237Z,21.67
2018-12-15T12:42:33.365Z,19.53
2018-12-15T12:45:01.401Z,17.70
2018-12-15T12:47:36.131Z,19.47
2018-12-15T12:50:04.788Z,18.90
2018-12-15T12:52:46.056Z,19.53
2018-12-15T12:55:14.049Z,16.90
2018-12-15T12:57:42.069Z,17.40
2018-12-15T13:00:10.273Z,19.40
2018-12-15T13:02:45.084Z,19.40
2018-12-15T13:05:13.093Z,20.40
2018-12-15T13:07:41.140Z,19.27
2018-12-15T13:10:09.249Z,21.03
2018-12-15T13:12:37.357Z,19.00
2018-12-15T13:15:05.781Z,21.37
2018-12-15T13:17:41.158Z,20.13
2018-12-15T13:20:09.217Z,17.43
2018-12-15T13:22:37.385Z,24.30
2018-12-15T13:25:05.500Z,27.40
2018-12-15T13:27:33.549Z,19.13
2018-12-15T13:30:01.668Z,19.70
2018-12-15T13:32:29.669Z,19.23
2018-12-15T13:34:57.713Z,17.40
2018-12-15T13:37:25.838Z,18.53
2018-12-15T13:39:54.074Z,19.83
2018-12-15T13:42:22.222Z,19.83
2018-12-15T13:44:50.230Z,20.13
2018-12-15T13:47:18.338Z,16.63
2018-12-15T13:49:46.379Z,20.80
2018-12-15T13:52:14.422Z,23.43
2018-12-15T13:54:42.423Z,20.00
2018-12-15T13:57:10.474Z,19.87
2018-12-15T13:59:38.490Z,22.97
2018-12-15T14:02:06.522Z,21.30
2018-12-15T14:04:34.552Z,16.93
2018-12-15T14:07:02.578Z,20.90
2018-12-15T14:09:30.602Z,19.70
2018-12-15T14:11:58.633Z,18.90
2018-12-15T17:13:35.199Z,21.40
2018-12-15T17:16:03.530Z,22.90
2018-12-15T17:18:31.691Z,27.80
2018-12-15T17:20:59.747Z,23.30
2018-12-15T17:23:27.883Z,19.80
2018-12-15T17:25:55.959Z,33.23
2018-12-15T17:28:24.047Z,25.83
2018-12-15T17:30:52.119Z,21.47
2018-12-15T17:33:20.415Z,22.43
2018-12-15T17:35:48.491Z,33.17
2018-12-15T17:38:16.559Z,21.97
2018-12-15T17:40:44.642Z,20.43
2018-12-15T17:43:12.713Z,21.40
2018-12-15T17:45:40.899Z,22.67
2018-12-15T17:48:08.999Z,21.30
2018-12-15T17:50:37.103Z,23.03
2018-12-15T17:53:05.160Z,22.27
2018-12-15T17:55:33.264Z,24.07
2018-12-15T17:58:01.302Z,25.30
2018-12-15T18:00:29.472Z,25.90
2018-12-15T18:02:57.520Z,21.23
2018-12-15T18:05:25.595Z,18.93
2018-12-15T18:07:53.633Z,27.37
2018-12-15T18:10:21.712Z,25.90
2018-12-15T18:12:49.749Z,25.30
2018-12-15T18:15:17.785Z,22.63
2018-12-15T18:17:45.805Z,23.33
2018-12-15T18:20:13.813Z,26.17
2018-12-15T18:22:42.076Z,27.53
2018-12-15T18:25:10.617Z,23.80
2018-12-15T18:27:38.826Z,25.63
2018-12-15T18:30:08.533Z,28.60
2018-12-15T18:32:36.615Z,26.03
2018-12-15T18:35:04.759Z,28.10
2018-12-15T18:37:32.801Z,27.00
2018-12-15T18:40:00.878Z,27.80
2018-12-15T18:42:28.971Z,26.20
2018-12-15T18:44:56.998Z,24.20
2018-12-15T18:47:25.074Z,23.70
2018-12-15T18:49:53.102Z,25.87
2018-12-15T18:52:21.154Z,28.03
2018-12-15T18:54:49.185Z,28.93
2018-12-15T18:57:17.222Z,27.07
2018-12-15T18:59:45.399Z,30.67
2018-12-15T19:02:13.498Z,24.27
2018-12-15T19:04:41.638Z,23.07
2018-12-15T19:07:10.181Z,31.33
2018-12-15T19:09:38.282Z,27.07
2018-12-15T19:12:06.342Z,29.23
2018-12-15T19:14:34.438Z,27.27
2018-12-15T19:17:02.614Z,29.57
2018-12-15T19:19:31.334Z,28.83
2018-12-15T19:21:59.726Z,30.77
2018-12-15T19:24:28.640Z,33.27
2018-12-15T19:26:56.895Z,28.97
2018-12-15T19:29:25.086Z,28.63
2018-12-15T19:31:53.390Z,34.77
2018-12-15T19:34:21.772Z,26.27
2018-12-15T19:36:50.130Z,26.50
2018-12-15T19:39:18.801Z,33.40
2018-12-15T19:41:47.223Z,28.60
2018-12-15T19:44:15.550Z,29.80
2018-12-15T19:46:43.891Z,34.93
2018-12-15T19:49:12.242Z,34.73
2018-12-15T19:51:40.662Z,30.90
2018-12-15T19:54:08.994Z,37.77
2018-12-15T19:56:37.404Z,31.77
2018-12-15T19:59:05.755Z,31.63
2018-12-15T20:01:34.191Z,28.50
2018-12-15T20:04:02.563Z,27.00
2018-12-15T20:06:30.923Z,28.63
2018-12-15T20:08:59.279Z,24.90
2018-12-15T20:11:27.716Z,26.80
2018-12-15T20:13:56.108Z,31.90
2018-12-15T20:16:24.619Z,38.23
2018-12-15T20:18:52.991Z,26.87
2018-12-15T20:21:21.630Z,29.70
2018-12-15T20:23:50.247Z,27.00
2018-12-15T20:26:19.099Z,26.03
2018-12-15T20:28:47.556Z,26.50
2018-12-15T20:31:15.891Z,31.60
2018-12-15T20:33:44.231Z,33.07
2018-12-15T20:36:12.499Z,29.60
2018-12-15T20:38:40.807Z,28.43
2018-12-15T20:41:09.256Z,30.97
2018-12-15T20:43:37.611Z,28.13
2018-12-15T20:46:06.120Z,31.30
2018-12-15T20:48:34.516Z,28.00
2018-12-15T20:51:02.828Z,35.50
2018-12-15T20:53:45.891Z,31.93
2018-12-15T20:56:14.260Z,27.40
2018-12-15T20:58:46.324Z,29.57
2018-12-15T21:01:18.464Z,25.47
2018-12-15T21:03:53.304Z,26.50
2018-12-15T21:06:21.652Z,24.30
2018-12-15T21:08:50.019Z,25.37
2018-12-15T21:11:24.043Z,24.87
2018-12-15T21:13:49.068Z,30.87
2018-12-15T21:16:17.379Z,24.97
2018-12-15T21:18:45.687Z,24.80
2018-12-15T21:21:13.976Z,25.17
2018-12-15T21:24:03.880Z,21.97
2018-12-15T21:26:32.185Z,22.50
2018-12-15T21:29:00.496Z,25.67
2018-12-15T21:31:47.101Z,25.20
2018-12-15T21:34:15.509Z,23.30
2018-12-15T21:36:54.165Z,21.30
2018-12-15T21:42:13.339Z,21.93
2018-12-15T21:44:41.655Z,21.73
2018-12-15T21:47:10.888Z,24.83
2018-12-15T21:49:39.220Z,21.67
2018-12-15T21:52:08.821Z,23.83
2018-12-15T21:54:37.213Z,18.53
2018-12-15T21:57:05.908Z,18.83
2018-12-15T21:59:34.225Z,25.33
2018-12-15T22:02:02.550Z,23.87
2018-12-15T22:04:30.817Z,19.87
2018-12-15T22:10:43.257Z,22.30
2018-12-15T22:13:11.677Z,22.83
2018-12-15T22:15:40.017Z,21.20
2018-12-15T22:18:08.381Z,23.03
2018-12-15T22:20:36.916Z,21.60
2018-12-15T22:23:05.434Z,30.03
2018-12-15T22:25:33.693Z,19.53
2018-12-15T22:28:01.965Z,22.23
2018-12-15T22:30:30.529Z,23.23
2018-12-15T22:32:58.800Z,22.17
2018-12-15T22:35:27.209Z,22.30
2018-12-15T22:37:55.464Z,22.90
2018-12-15T22:40:23.853Z,22.93
2018-12-15T22:42:52.273Z,22.30
2018-12-15T22:45:20.565Z,22.60
2018-12-15T22:47:49.117Z,24.73
2018-12-15T22:50:17.406Z,19.93
2018-12-15T22:52:45.671Z,20.33
2018-12-15T22:55:13.957Z,19.70
2018-12-15T22:57:42.637Z,21.97
2018-12-15T23:00:13.231Z,21.40
2018-12-15T23:02:42.077Z,21.90
2018-12-15T23:05:10.449Z,22.17
2018-12-15T23:07:38.816Z,21.00
2018-12-15T23:10:08.304Z,24.10
2018-12-15T23:12:37.301Z,19.07
2018-12-15T23:15:07.045Z,20.47
2018-12-15T23:17:35.473Z,21.97
2018-12-15T23:20:05.833Z,26.30
2018-12-15T23:22:34.119Z,26.50
2018-12-15T23:25:02.893Z,20.40
2018-12-15T23:27:31.233Z,19.83
2018-12-15T23:29:59.645Z,21.20
2018-12-15T23:32:27.921Z,17.63
2018-12-15T23:34:56.231Z,20.60
2018-12-15T23:37:24.493Z,19.83
2018-12-15T23:39:53.182Z,20.90
2018-12-15T23:42:21.473Z,18.03
2018-12-15T23:44:49.745Z,17.73
2018-12-15T23:47:18.316Z,22.43
2018-12-15T23:49:46.593Z,18.60
2018-12-15T23:52:14.887Z,23.10
2018-12-15T23:54:43.185Z,20.23
2018-12-15T23:57:11.489Z,19.13
2018-12-15T23:59:39.953Z,22.60
